sensor_id;sensor_type;location;lat;lon;timestamp;P1;durP1;ratioP1;P2;durP2;ratioP2
18917;SDS011;9591;52.742;13.650;2022-07-12T00:01:34;6.50;;;2.60;;
18917;SDS011;9591;52.742;13.650;2022-07-12T00:04:21;3.83;;;2.77;;
18917;SDS011;9591;52.742;13.650;2022-07-12T00:07:09;5.57;;;2.70;;
18917;SDS011;9591;52.742;13.650;2022-07-12T00:09:56;2.60;;;2.40;;
18917;SDS011;9591;52.742;13.650;2022-07-12T00:12:42;2.80;;;2.30;;
18917;SDS011;9591;52.742;13.650;2022-07-12T00:15:29;3.07;;;2.10;;
18917;SDS011;9591;52.742;13.650;2022-07-12T00:18:16;6.67;;;2.60;;
18917;SDS011;9591;52.742;13.650;2022-07-12T00:21:03;2.73;;;2.17;;
18917;SDS011;9591;52.742;13.650;2022-07-12T00:23:51;4.80;;;2.33;;
18917;SDS011;9591;52.742;13.650;2022-07-12T00:26:38;3.33;;;3.03;;
18917;SDS011;9591;52.742;13.650;2022-07-12T00:29:25;2.10;;;1.93;;
18917;SDS011;9591;52.742;13.650;2022-07-12T00:32:12;2.40;;;2.20;;
18917;SDS011;9591;52.742;13.650;2022-07-12T00:34:58;3.10;;;2.10;;
18917;SDS011;9591;52.742;13.650;2022-07-12T00:37:47;5.07;;;2.37;;
18917;SDS011;9591;52.742;13.650;2022-07-12T00:40:35;2.93;;;2.10;;
18917;SDS011;9591;52.742;13.650;2022-07-12T00:43:22;4.23;;;2.30;;
18917;SDS011;9591;52.742;13.650;2022-07-12T00:46:09;3.50;;;2.63;;
18917;SDS011;9591;52.742;13.650;2022-07-12T00:48:56;5.13;;;2.27;;
18917;SDS011;9591;52.742;13.650;2022-07-12T00:51:43;2.27;;;1.97;;
18917;SDS011;9591;52.742;13.650;2022-07-12T00:54:30;3.47;;;2.17;;
18917;SDS011;9591;52.742;13.650;2022-07-12T00:57:18;3.80;;;2.37;;
18917;SDS011;9591;52.742;13.650;2022-07-12T01:00:06;2.43;;;2.03;;
18917;SDS011;9591;52.742;13.650;2022-07-12T01:02:55;4.37;;;2.20;;
18917;SDS011;9591;52.742;13.650;2022-07-12T01:05:43;2.90;;;2.27;;
18917;SDS011;9591;52.742;13.650;2022-07-12T01:08:30;5.53;;;2.20;;
18917;SDS011;9591;52.742;13.650;2022-07-12T01:11:19;2.30;;;2.10;;
18917;SDS011;9591;52.742;13.650;2022-07-12T01:14:08;1.70;;;1.60;;
18917;SDS011;9591;52.742;13.650;2022-07-12T01:16:55;2.17;;;1.97;;
18917;SDS011;9591;52.742;13.650;2022-07-12T01:19:42;2.30;;;2.00;;
18917;SDS011;9591;52.742;13.650;2022-07-12T01:22:30;4.73;;;2.10;;
18917;SDS011;9591;52.742;13.650;2022-07-12T01:25:19;2.73;;;2.20;;
18917;SDS011;9591;52.742;13.650;2022-07-12T01:28:06;3.10;;;2.10;;
18917;SDS011;9591;52.742;13.650;2022-07-12T01:30:53;3.07;;;1.80;;
18917;SDS011;9591;52.742;13.650;2022-07-12T01:33:39;2.20;;;2.00;;
18917;SDS011;9591;52.742;13.650;2022-07-12T01:36:26;4.57;;;2.00;;
18917;SDS011;9591;52.742;13.650;2022-07-12T01:39:15;6.87;;;2.17;;
18917;SDS011;9591;52.742;13.650;2022-07-12T01:42:04;2.47;;;2.27;;
18917;SDS011;9591;52.742;13.650;2022-07-12T01:44:51;3.47;;;1.80;;
18917;SDS011;9591;52.742;13.650;2022-07-12T01:47:39;2.27;;;1.93;;
18917;SDS011;9591;52.742;13.650;2022-07-12T01:50:26;2.80;;;2.10;;
18917;SDS011;9591;52.742;13.650;2022-07-12T01:53:13;2.80;;;2.10;;
18917;SDS011;9591;52.742;13.650;2022-07-12T01:55:59;2.17;;;2.00;;
18917;SDS011;9591;52.742;13.650;2022-07-12T01:58:48;2.33;;;1.90;;
18917;SDS011;9591;52.742;13.650;2022-07-12T02:01:35;5.53;;;1.93;;
18917;SDS011;9591;52.742;13.650;2022-07-12T02:04:23;4.60;;;1.97;;
18917;SDS011;9591;52.742;13.650;2022-07-12T02:07:10;2.20;;;2.00;;
18917;SDS011;9591;52.742;13.650;2022-07-12T02:09:56;2.00;;;1.90;;
18917;SDS011;9591;52.742;13.650;2022-07-12T02:12:43;2.80;;;1.80;;
18917;SDS011;9591;52.742;13.650;2022-07-12T02:15:31;1.80;;;1.70;;
18917;SDS011;9591;52.742;13.650;2022-07-12T02:18:18;6.17;;;1.93;;
18917;SDS011;9591;52.742;13.650;2022-07-12T02:21:05;2.13;;;1.80;;
18917;SDS011;9591;52.742;13.650;2022-07-12T02:23:52;4.57;;;1.67;;
18917;SDS011;9591;52.742;13.650;2022-07-12T02:26:38;2.47;;;1.60;;
18917;SDS011;9591;52.742;13.650;2022-07-12T02:29:25;3.07;;;1.70;;
18917;SDS011;9591;52.742;13.650;2022-07-12T02:32:13;1.97;;;1.70;;
18917;SDS011;9591;52.742;13.650;2022-07-12T02:35:00;3.13;;;1.83;;
18917;SDS011;9591;52.742;13.650;2022-07-12T02:37:47;2.23;;;1.97;;
18917;SDS011;9591;52.742;13.650;2022-07-12T02:40:33;2.37;;;1.70;;
18917;SDS011;9591;52.742;13.650;2022-07-12T02:43:37;6.20;;;2.40;;
18917;SDS011;9591;52.742;13.650;2022-07-12T02:46:24;5.00;;;1.87;;
18917;SDS011;9591;52.742;13.650;2022-07-12T02:49:13;2.27;;;1.57;;
18917;SDS011;9591;52.742;13.650;2022-07-12T02:52:00;2.83;;;1.80;;
18917;SDS011;9591;52.742;13.650;2022-07-12T02:54:46;3.73;;;1.80;;
18917;SDS011;9591;52.742;13.650;2022-07-12T02:57:33;1.70;;;1.60;;
18917;SDS011;9591;52.742;13.650;2022-07-12T03:00:21;2.57;;;1.80;;
18917;SDS011;9591;52.742;13.650;2022-07-12T03:03:08;1.87;;;1.77;;
18917;SDS011;9591;52.742;13.650;2022-07-12T03:05:56;3.40;;;1.70;;
18917;SDS011;9591;52.742;13.650;2022-07-12T03:08:43;2.80;;;1.50;;
18917;SDS011;9591;52.742;13.650;2022-07-12T03:11:30;5.07;;;1.80;;
18917;SDS011;9591;52.742;13.650;2022-07-12T03:14:16;2.43;;;1.80;;
18917;SDS011;9591;52.742;13.650;2022-07-12T03:17:03;3.80;;;1.70;;
18917;SDS011;9591;52.742;13.650;2022-07-12T03:19:50;2.23;;;1.70;;
18917;SDS011;9591;52.742;13.650;2022-07-12T03:22:38;1.70;;;1.60;;
18917;SDS011;9591;52.742;13.650;2022-07-12T03:25:25;1.57;;;1.47;;
18917;SDS011;9591;52.742;13.650;2022-07-12T03:28:12;2.30;;;1.80;;
18917;SDS011;9591;52.742;13.650;2022-07-12T03:30:59;2.87;;;2.20;;
18917;SDS011;9591;52.742;13.650;2022-07-12T03:33:46;3.63;;;1.67;;
18917;SDS011;9591;52.742;13.650;2022-07-12T03:36:33;1.70;;;1.60;;
18917;SDS011;9591;52.742;13.650;2022-07-12T03:39:21;1.70;;;1.60;;
18917;SDS011;9591;52.742;13.650;2022-07-12T03:42:08;2.60;;;1.57;;
18917;SDS011;9591;52.742;13.650;2022-07-12T03:44:56;3.23;;;1.70;;
18917;SDS011;9591;52.742;13.650;2022-07-12T03:47:43;2.80;;;1.33;;
18917;SDS011;9591;52.742;13.650;2022-07-12T03:50:30;1.73;;;1.47;;
18917;SDS011;9591;52.742;13.650;2022-07-12T03:53:16;4.67;;;1.53;;
18917;SDS011;9591;52.742;13.650;2022-07-12T03:56:06;3.43;;;1.37;;
18917;SDS011;9591;52.742;13.650;2022-07-12T03:58:53;1.63;;;1.53;;
18917;SDS011;9591;52.742;13.650;2022-07-12T04:01:40;3.27;;;1.53;;
18917;SDS011;9591;52.742;13.650;2022-07-12T04:04:29;4.33;;;1.63;;
18917;SDS011;9591;52.742;13.650;2022-07-12T04:07:16;1.53;;;1.43;;
18917;SDS011;9591;52.742;13.650;2022-07-12T04:10:04;2.60;;;1.33;;
18917;SDS011;9591;52.742;13.650;2022-07-12T04:12:52;2.07;;;1.80;;
18917;SDS011;9591;52.742;13.650;2022-07-12T04:15:40;1.97;;;1.87;;
18917;SDS011;9591;52.742;13.650;2022-07-12T04:18:27;1.33;;;1.20;;
18917;SDS011;9591;52.742;13.650;2022-07-12T04:21:14;1.53;;;1.43;;
18917;SDS011;9591;52.742;13.650;2022-07-12T04:24:01;1.83;;;1.37;;
18917;SDS011;9591;52.742;13.650;2022-07-12T04:26:48;1.83;;;1.30;;
18917;SDS011;9591;52.742;13.650;2022-07-12T04:29:37;1.50;;;1.30;;
18917;SDS011;9591;52.742;13.650;2022-07-12T04:32:24;0.90;;;0.90;;
18917;SDS011;9591;52.742;13.650;2022-07-12T04:35:11;1.00;;;0.90;;
18917;SDS011;9591;52.742;13.650;2022-07-12T04:37:57;1.17;;;1.07;;
18917;SDS011;9591;52.742;13.650;2022-07-12T04:40:44;2.17;;;1.00;;
18917;SDS011;9591;52.742;13.650;2022-07-12T04:43:31;1.50;;;0.90;;
18917;SDS011;9591;52.742;13.650;2022-07-12T04:46:19;3.37;;;0.90;;
18917;SDS011;9591;52.742;13.650;2022-07-12T04:49:06;4.20;;;1.20;;
18917;SDS011;9591;52.742;13.650;2022-07-12T04:51:53;2.17;;;0.90;;
18917;SDS011;9591;52.742;13.650;2022-07-12T04:54:39;2.50;;;1.27;;
18917;SDS011;9591;52.742;13.650;2022-07-12T04:57:26;3.00;;;1.00;;
18917;SDS011;9591;52.742;13.650;2022-07-12T05:00:13;2.93;;;1.20;;
18917;SDS011;9591;52.742;13.650;2022-07-12T05:03:02;1.50;;;0.97;;
18917;SDS011;9591;52.742;13.650;2022-07-12T05:05:49;1.93;;;1.00;;
18917;SDS011;9591;52.742;13.650;2022-07-12T05:08:36;0.70;;;0.70;;
18917;SDS011;9591;52.742;13.650;2022-07-12T05:11:22;1.73;;;0.90;;
18917;SDS011;9591;52.742;13.650;2022-07-12T05:14:09;1.23;;;1.00;;
18917;SDS011;9591;52.742;13.650;2022-07-12T05:16:56;2.07;;;1.03;;
18917;SDS011;9591;52.742;13.650;2022-07-12T05:19:44;4.43;;;1.37;;
18917;SDS011;9591;52.742;13.650;2022-07-12T05:22:31;1.10;;;1.10;;
18917;SDS011;9591;52.742;13.650;2022-07-12T05:25:18;1.10;;;1.00;;
18917;SDS011;9591;52.742;13.650;2022-07-12T05:28:05;0.90;;;0.90;;
18917;SDS011;9591;52.742;13.650;2022-07-12T05:30:52;2.73;;;1.07;;
18917;SDS011;9591;52.742;13.650;2022-07-12T05:33:39;1.30;;;1.07;;
18917;SDS011;9591;52.742;13.650;2022-07-12T05:36:27;1.40;;;1.20;;
18917;SDS011;9591;52.742;13.650;2022-07-12T05:39:13;3.43;;;1.17;;
18917;SDS011;9591;52.742;13.650;2022-07-12T05:42:00;1.27;;;1.00;;
18917;SDS011;9591;52.742;13.650;2022-07-12T05:44:47;1.13;;;0.90;;
18917;SDS011;9591;52.742;13.650;2022-07-12T05:47:33;2.07;;;1.20;;
18917;SDS011;9591;52.742;13.650;2022-07-12T05:50:20;2.47;;;1.10;;
18917;SDS011;9591;52.742;13.650;2022-07-12T05:53:08;1.20;;;1.10;;
18917;SDS011;9591;52.742;13.650;2022-07-12T05:56:09;1.20;;;1.10;;
18917;SDS011;9591;52.742;13.650;2022-07-12T05:58:56;3.43;;;1.10;;
18917;SDS011;9591;52.742;13.650;2022-07-12T06:01:43;1.27;;;1.00;;
18917;SDS011;9591;52.742;13.650;2022-07-12T06:04:30;0.93;;;0.80;;
18917;SDS011;9591;52.742;13.650;2022-07-12T06:07:17;1.40;;;0.90;;
18917;SDS011;9591;52.742;13.650;2022-07-12T06:10:06;1.57;;;1.00;;
18917;SDS011;9591;52.742;13.650;2022-07-12T06:12:53;1.73;;;0.90;;
18917;SDS011;9591;52.742;13.650;2022-07-12T06:15:40;1.27;;;1.10;;
18917;SDS011;9591;52.742;13.650;2022-07-12T06:18:26;5.40;;;1.17;;
18917;SDS011;9591;52.742;13.650;2022-07-12T06:21:13;1.23;;;0.83;;
18917;SDS011;9591;52.742;13.650;2022-07-12T06:24:00;2.13;;;1.17;;
18917;SDS011;9591;52.742;13.650;2022-07-12T06:26:48;0.80;;;0.80;;
18917;SDS011;9591;52.742;13.650;2022-07-12T06:29:35;3.60;;;0.93;;
18917;SDS011;9591;52.742;13.650;2022-07-12T06:32:22;1.90;;;1.07;;
18917;SDS011;9591;52.742;13.650;2022-07-12T06:35:09;2.40;;;0.80;;
18917;SDS011;9591;52.742;13.650;2022-07-12T06:37:55;1.20;;;0.70;;
18917;SDS011;9591;52.742;13.650;2022-07-12T06:40:42;3.03;;;1.30;;
18917;SDS011;9591;52.742;13.650;2022-07-12T06:43:30;3.57;;;1.20;;
18917;SDS011;9591;52.742;13.650;2022-07-12T06:46:17;1.10;;;1.00;;
18917;SDS011;9591;52.742;13.650;2022-07-12T06:49:04;3.77;;;1.10;;
18917;SDS011;9591;52.742;13.650;2022-07-12T06:51:50;1.07;;;0.90;;
18917;SDS011;9591;52.742;13.650;2022-07-12T06:54:38;3.37;;;1.67;;
18917;SDS011;9591;52.742;13.650;2022-07-12T06:57:25;1.83;;;0.83;;
18917;SDS011;9591;52.742;13.650;2022-07-12T07:00:14;2.43;;;1.07;;
18917;SDS011;9591;52.742;13.650;2022-07-12T07:03:01;0.90;;;0.90;;
18917;SDS011;9591;52.742;13.650;2022-07-12T07:05:47;4.33;;;1.07;;
18917;SDS011;9591;52.742;13.650;2022-07-12T07:08:34;1.17;;;1.07;;
18917;SDS011;9591;52.742;13.650;2022-07-12T07:11:20;2.87;;;0.90;;
18917;SDS011;9591;52.742;13.650;2022-07-12T07:14:07;1.83;;;0.70;;
18917;SDS011;9591;52.742;13.650;2022-07-12T07:16:55;6.23;;;0.90;;
18917;SDS011;9591;52.742;13.650;2022-07-12T07:19:42;2.17;;;0.80;;
18917;SDS011;9591;52.742;13.650;2022-07-12T07:22:29;1.90;;;0.80;;
18917;SDS011;9591;52.742;13.650;2022-07-12T07:25:16;2.20;;;0.90;;
18917;SDS011;9591;52.742;13.650;2022-07-12T07:28:03;1.13;;;1.00;;
18917;SDS011;9591;52.742;13.650;2022-07-12T07:30:51;1.73;;;0.90;;
18917;SDS011;9591;52.742;13.650;2022-07-12T07:33:40;2.83;;;0.83;;
18917;SDS011;9591;52.742;13.650;2022-07-12T07:36:27;2.50;;;0.77;;
18917;SDS011;9591;52.742;13.650;2022-07-12T07:39:14;1.50;;;0.90;;
18917;SDS011;9591;52.742;13.650;2022-07-12T07:42:05;0.97;;;0.63;;
18917;SDS011;9591;52.742;13.650;2022-07-12T07:44:52;2.27;;;0.70;;
18917;SDS011;9591;52.742;13.650;2022-07-12T07:47:58;1.10;;;0.83;;
18917;SDS011;9591;52.742;13.650;2022-07-12T07:51:06;2.77;;;0.73;;
18917;SDS011;9591;52.742;13.650;2022-07-12T07:53:53;1.93;;;0.60;;
18917;SDS011;9591;52.742;13.650;2022-07-12T07:56:40;1.27;;;0.90;;
18917;SDS011;9591;52.742;13.650;2022-07-12T07:59:26;2.70;;;1.40;;
18917;SDS011;9591;52.742;13.650;2022-07-12T08:02:13;2.23;;;0.80;;
18917;SDS011;9591;52.742;13.650;2022-07-12T08:05:00;2.97;;;0.90;;
18917;SDS011;9591;52.742;13.650;2022-07-12T08:07:48;1.80;;;1.00;;
18917;SDS011;9591;52.742;13.650;2022-07-12T08:10:39;1.30;;;0.70;;
18917;SDS011;9591;52.742;13.650;2022-07-12T08:13:26;4.10;;;0.70;;
18917;SDS011;9591;52.742;13.650;2022-07-12T08:16:12;2.17;;;0.90;;
18917;SDS011;9591;52.742;13.650;2022-07-12T08:18:59;2.57;;;0.90;;
18917;SDS011;9591;52.742;13.650;2022-07-12T08:21:46;1.93;;;0.70;;
18917;SDS011;9591;52.742;13.650;2022-07-12T08:24:34;1.03;;;0.70;;
18917;SDS011;9591;52.742;13.650;2022-07-12T08:27:21;3.37;;;0.60;;
18917;SDS011;9591;52.742;13.650;2022-07-12T08:30:08;0.87;;;0.60;;
18917;SDS011;9591;52.742;13.650;2022-07-12T08:32:56;1.33;;;0.60;;
18917;SDS011;9591;52.742;13.650;2022-07-12T08:35:43;0.97;;;0.80;;
18917;SDS011;9591;52.742;13.650;2022-07-12T08:38:30;10.73;;;0.80;;
18917;SDS011;9591;52.742;13.650;2022-07-12T08:41:20;0.77;;;0.70;;
18917;SDS011;9591;52.742;13.650;2022-07-12T08:44:07;1.07;;;0.80;;
18917;SDS011;9591;52.742;13.650;2022-07-12T08:46:53;3.17;;;0.70;;
18917;SDS011;9591;52.742;13.650;2022-07-12T08:49:40;0.80;;;0.60;;
18917;SDS011;9591;52.742;13.650;2022-07-12T08:53:02;0.67;;;0.57;;
18917;SDS011;9591;52.742;13.650;2022-07-12T08:55:57;0.53;;;0.53;;
18917;SDS011;9591;52.742;13.650;2022-07-12T08:58:45;2.07;;;0.60;;
18917;SDS011;9591;52.742;13.650;2022-07-12T09:01:54;2.40;;;0.70;;
18917;SDS011;9591;52.742;13.650;2022-07-12T09:04:42;2.20;;;0.80;;
18917;SDS011;9591;52.742;13.650;2022-07-12T09:07:28;2.63;;;0.93;;
18917;SDS011;9591;52.742;13.650;2022-07-12T09:10:16;2.03;;;0.70;;
18917;SDS011;9591;52.742;13.650;2022-07-12T09:13:04;2.00;;;0.83;;
18917;SDS011;9591;52.742;13.650;2022-07-12T09:15:52;7.20;;;0.80;;
18917;SDS011;9591;52.742;13.650;2022-07-12T09:18:39;2.80;;;0.60;;
18917;SDS011;9591;52.742;13.650;2022-07-12T09:21:30;2.07;;;0.70;;
18917;SDS011;9591;52.742;13.650;2022-07-12T09:24:17;0.70;;;0.70;;
18917;SDS011;9591;52.742;13.650;2022-07-12T09:27:04;1.00;;;0.80;;
18917;SDS011;9591;52.742;13.650;2022-07-12T09:29:51;1.83;;;0.60;;
18917;SDS011;9591;52.742;13.650;2022-07-12T09:32:52;0.83;;;0.67;;
18917;SDS011;9591;52.742;13.650;2022-07-12T09:35:58;3.60;;;0.77;;
18917;SDS011;9591;52.742;13.650;2022-07-12T09:38:54;2.03;;;0.90;;
18917;SDS011;9591;52.742;13.650;2022-07-12T09:41:46;0.97;;;0.70;;
18917;SDS011;9591;52.742;13.650;2022-07-12T09:44:33;4.80;;;0.60;;
18917;SDS011;9591;52.742;13.650;2022-07-12T09:47:20;1.80;;;1.10;;
18917;SDS011;9591;52.742;13.650;2022-07-12T09:50:09;1.70;;;0.70;;
18917;SDS011;9591;52.742;13.650;2022-07-12T09:52:57;0.77;;;0.60;;
18917;SDS011;9591;52.742;13.650;2022-07-12T09:55:47;0.40;;;0.40;;
18917;SDS011;9591;52.742;13.650;2022-07-12T09:58:43;0.83;;;0.43;;
18917;SDS011;9591;52.742;13.650;2022-07-12T10:01:37;0.40;;;0.40;;
18917;SDS011;9591;52.742;13.650;2022-07-12T10:04:27;3.80;;;0.60;;
18917;SDS011;9591;52.742;13.650;2022-07-12T10:07:17;8.50;;;1.27;;
18917;SDS011;9591;52.742;13.650;2022-07-12T10:10:05;0.80;;;0.80;;
18917;SDS011;9591;52.742;13.650;2022-07-12T10:12:56;0.97;;;0.50;;
18917;SDS011;9591;52.742;13.650;2022-07-12T10:15:45;1.13;;;0.40;;
18917;SDS011;9591;52.742;13.650;2022-07-12T10:18:33;0.30;;;0.30;;
18917;SDS011;9591;52.742;13.650;2022-07-12T10:21:20;0.67;;;0.50;;
18917;SDS011;9591;52.742;13.650;2022-07-12T10:27:28;0.93;;;0.50;;
18917;SDS011;9591;52.742;13.650;2022-07-12T10:30:19;3.20;;;1.07;;
18917;SDS011;9591;52.742;13.650;2022-07-12T10:33:14;0.50;;;0.50;;
18917;SDS011;9591;52.742;13.650;2022-07-12T10:36:01;1.33;;;0.70;;
18917;SDS011;9591;52.742;13.650;2022-07-12T10:39:10;1.70;;;0.70;;
18917;SDS011;9591;52.742;13.650;2022-07-12T10:42:12;0.50;;;0.50;;
18917;SDS011;9591;52.742;13.650;2022-07-12T10:45:13;2.70;;;0.60;;
18917;SDS011;9591;52.742;13.650;2022-07-12T10:48:01;3.03;;;0.80;;
18917;SDS011;9591;52.742;13.650;2022-07-12T10:50:55;1.80;;;0.60;;
18917;SDS011;9591;52.742;13.650;2022-07-12T10:53:42;0.60;;;0.60;;
18917;SDS011;9591;52.742;13.650;2022-07-12T10:56:31;0.70;;;0.57;;
18917;SDS011;9591;52.742;13.650;2022-07-12T10:59:22;0.50;;;0.50;;
18917;SDS011;9591;52.742;13.650;2022-07-12T11:02:13;2.40;;;0.70;;
18917;SDS011;9591;52.742;13.650;2022-07-12T11:05:09;2.63;;;0.80;;
18917;SDS011;9591;52.742;13.650;2022-07-12T11:07:56;4.50;;;0.70;;
18917;SDS011;9591;52.742;13.650;2022-07-12T11:10:53;0.90;;;0.70;;
18917;SDS011;9591;52.742;13.650;2022-07-12T11:13:40;2.93;;;0.50;;
18917;SDS011;9591;52.742;13.650;2022-07-12T11:16:27;0.50;;;0.50;;
18917;SDS011;9591;52.742;13.650;2022-07-12T11:19:20;3.57;;;0.73;;
18917;SDS011;9591;52.742;13.650;2022-07-12T11:22:07;0.70;;;0.70;;
18917;SDS011;9591;52.742;13.650;2022-07-12T11:24:54;0.60;;;0.60;;
18917;SDS011;9591;52.742;13.650;2022-07-12T11:27:41;0.93;;;0.77;;
18917;SDS011;9591;52.742;13.650;2022-07-12T11:30:27;2.23;;;0.70;;
18917;SDS011;9591;52.742;13.650;2022-07-12T11:33:14;3.20;;;0.77;;
18917;SDS011;9591;52.742;13.650;2022-07-12T11:36:03;2.07;;;0.93;;
18917;SDS011;9591;52.742;13.650;2022-07-12T11:38:52;0.40;;;0.40;;
18917;SDS011;9591;52.742;13.650;2022-07-12T11:41:39;3.53;;;0.70;;
18917;SDS011;9591;52.742;13.650;2022-07-12T11:44:42;0.97;;;0.60;;
18917;SDS011;9591;52.742;13.650;2022-07-12T11:47:30;1.90;;;0.60;;
18917;SDS011;9591;52.742;13.650;2022-07-12T11:50:19;1.67;;;0.70;;
18917;SDS011;9591;52.742;13.650;2022-07-12T11:53:11;2.20;;;0.77;;
18917;SDS011;9591;52.742;13.650;2022-07-12T11:56:02;0.50;;;0.50;;
18917;SDS011;9591;52.742;13.650;2022-07-12T11:58:54;0.60;;;0.57;;
18917;SDS011;9591;52.742;13.650;2022-07-12T12:01:42;0.40;;;0.40;;
18917;SDS011;9591;52.742;13.650;2022-07-12T12:04:29;1.83;;;0.60;;
18917;SDS011;9591;52.742;13.650;2022-07-12T12:07:16;0.57;;;0.50;;
18917;SDS011;9591;52.742;13.650;2022-07-12T12:10:09;3.63;;;0.47;;
18917;SDS011;9591;52.742;13.650;2022-07-12T12:12:59;14.87;;;1.20;;
18917;SDS011;9591;52.742;13.650;2022-07-12T12:15:50;1.13;;;0.80;;
18917;SDS011;9591;52.742;13.650;2022-07-12T12:18:40;0.70;;;0.70;;
18917;SDS011;9591;52.742;13.650;2022-07-12T12:21:28;1.33;;;0.50;;
18917;SDS011;9591;52.742;13.650;2022-07-12T12:24:15;2.60;;;0.80;;
18917;SDS011;9591;52.742;13.650;2022-07-12T12:27:04;4.00;;;0.70;;
18917;SDS011;9591;52.742;13.650;2022-07-12T12:29:51;0.70;;;0.50;;
18917;SDS011;9591;52.742;13.650;2022-07-12T12:32:45;2.37;;;0.80;;
18917;SDS011;9591;52.742;13.650;2022-07-12T12:35:32;0.63;;;0.63;;
18917;SDS011;9591;52.742;13.650;2022-07-12T12:38:21;1.47;;;0.60;;
18917;SDS011;9591;52.742;13.650;2022-07-12T12:41:08;0.60;;;0.60;;
18917;SDS011;9591;52.742;13.650;2022-07-12T12:44:00;0.67;;;0.50;;
18917;SDS011;9591;52.742;13.650;2022-07-12T12:46:52;3.87;;;0.90;;
18917;SDS011;9591;52.742;13.650;2022-07-12T12:50:01;1.77;;;0.50;;
18917;SDS011;9591;52.742;13.650;2022-07-12T12:52:48;2.83;;;0.60;;
18917;SDS011;9591;52.742;13.650;2022-07-12T12:55:36;0.30;;;0.30;;
18917;SDS011;9591;52.742;13.650;2022-07-12T12:58:25;0.90;;;0.50;;
18917;SDS011;9591;52.742;13.650;2022-07-12T13:01:14;1.80;;;0.60;;
18917;SDS011;9591;52.742;13.650;2022-07-12T13:04:01;0.53;;;0.50;;
18917;SDS011;9591;52.742;13.650;2022-07-12T13:06:48;1.53;;;0.57;;
18917;SDS011;9591;52.742;13.650;2022-07-12T13:09:34;0.57;;;0.57;;
18917;SDS011;9591;52.742;13.650;2022-07-12T13:12:22;1.07;;;0.50;;
18917;SDS011;9591;52.742;13.650;2022-07-12T13:15:09;0.70;;;0.70;;
18917;SDS011;9591;52.742;13.650;2022-07-12T13:17:57;2.73;;;0.87;;
18917;SDS011;9591;52.742;13.650;2022-07-12T13:20:45;0.87;;;0.60;;
18917;SDS011;9591;52.742;13.650;2022-07-12T13:23:32;4.00;;;0.70;;
18917;SDS011;9591;52.742;13.650;2022-07-12T13:26:19;2.50;;;0.97;;
18917;SDS011;9591;52.742;13.650;2022-07-12T13:29:06;4.27;;;0.60;;
18917;SDS011;9591;52.742;13.650;2022-07-12T13:31:52;14.63;;;1.20;;
18917;SDS011;9591;52.742;13.650;2022-07-12T13:34:43;2.10;;;0.70;;
18917;SDS011;9591;52.742;13.650;2022-07-12T13:37:37;1.57;;;0.70;;
18917;SDS011;9591;52.742;13.650;2022-07-12T13:40:24;3.30;;;1.37;;
18917;SDS011;9591;52.742;13.650;2022-07-12T13:43:10;1.43;;;0.70;;
18917;SDS011;9591;52.742;13.650;2022-07-12T13:45:57;1.63;;;0.67;;
18917;SDS011;9591;52.742;13.650;2022-07-12T13:48:44;0.50;;;0.50;;
18917;SDS011;9591;52.742;13.650;2022-07-12T13:51:32;3.23;;;0.60;;
18917;SDS011;9591;52.742;13.650;2022-07-12T13:54:19;0.60;;;0.60;;
18917;SDS011;9591;52.742;13.650;2022-07-12T13:57:06;1.70;;;0.60;;
18917;SDS011;9591;52.742;13.650;2022-07-12T13:59:52;0.70;;;0.60;;
18917;SDS011;9591;52.742;13.650;2022-07-12T14:02:40;0.50;;;0.50;;
18917;SDS011;9591;52.742;13.650;2022-07-12T14:05:33;0.63;;;0.63;;
18917;SDS011;9591;52.742;13.650;2022-07-12T14:08:21;3.03;;;0.60;;
18917;SDS011;9591;52.742;13.650;2022-07-12T14:11:07;0.50;;;0.50;;
18917;SDS011;9591;52.742;13.650;2022-07-12T14:13:54;0.60;;;0.60;;
18917;SDS011;9591;52.742;13.650;2022-07-12T14:16:41;0.90;;;0.50;;
18917;SDS011;9591;52.742;13.650;2022-07-12T14:19:28;1.27;;;0.60;;
18917;SDS011;9591;52.742;13.650;2022-07-12T14:22:14;1.37;;;0.50;;
18917;SDS011;9591;52.742;13.650;2022-07-12T14:25:03;1.23;;;0.50;;
18917;SDS011;9591;52.742;13.650;2022-07-12T14:27:50;0.43;;;0.43;;
18917;SDS011;9591;52.742;13.650;2022-07-12T14:30:36;0.50;;;0.50;;
18917;SDS011;9591;52.742;13.650;2022-07-12T14:33:23;1.90;;;0.53;;
18917;SDS011;9591;52.742;13.650;2022-07-12T14:36:10;2.17;;;0.40;;
18917;SDS011;9591;52.742;13.650;2022-07-12T14:38:57;0.67;;;0.47;;
18917;SDS011;9591;52.742;13.650;2022-07-12T14:41:45;2.00;;;0.50;;
18917;SDS011;9591;52.742;13.650;2022-07-12T14:44:32;3.63;;;0.60;;
18917;SDS011;9591;52.742;13.650;2022-07-12T14:47:19;0.57;;;0.40;;
18917;SDS011;9591;52.742;13.650;2022-07-12T14:50:06;0.93;;;0.63;;
18917;SDS011;9591;52.742;13.650;2022-07-12T14:52:53;1.23;;;0.53;;
18917;SDS011;9591;52.742;13.650;2022-07-12T14:55:40;4.33;;;0.60;;
18917;SDS011;9591;52.742;13.650;2022-07-12T14:58:28;2.00;;;0.60;;
18917;SDS011;9591;52.742;13.650;2022-07-12T15:01:15;1.87;;;0.57;;
18917;SDS011;9591;52.742;13.650;2022-07-12T15:04:02;0.70;;;0.40;;
18917;SDS011;9591;52.742;13.650;2022-07-12T15:06:49;2.23;;;0.67;;
18917;SDS011;9591;52.742;13.650;2022-07-12T15:09:35;0.67;;;0.40;;
18917;SDS011;9591;52.742;13.650;2022-07-12T15:12:23;3.03;;;0.50;;
18917;SDS011;9591;52.742;13.650;2022-07-12T15:15:11;0.60;;;0.60;;
18917;SDS011;9591;52.742;13.650;2022-07-12T15:17:58;1.70;;;0.50;;
18917;SDS011;9591;52.742;13.650;2022-07-12T15:20:45;1.30;;;0.50;;
18917;SDS011;9591;52.742;13.650;2022-07-12T15:23:32;2.97;;;0.60;;
18917;SDS011;9591;52.742;13.650;2022-07-12T15:26:19;2.37;;;0.70;;
18917;SDS011;9591;52.742;13.650;2022-07-12T15:29:06;1.10;;;0.70;;
18917;SDS011;9591;52.742;13.650;2022-07-12T15:31:54;2.50;;;0.50;;
18917;SDS011;9591;52.742;13.650;2022-07-12T15:34:41;1.83;;;0.60;;
18917;SDS011;9591;52.742;13.650;2022-07-12T15:37:28;1.70;;;1.07;;
18917;SDS011;9591;52.742;13.650;2022-07-12T15:40:15;0.63;;;0.50;;
18917;SDS011;9591;52.742;13.650;2022-07-12T15:43:02;0.50;;;0.47;;
18917;SDS011;9591;52.742;13.650;2022-07-12T15:45:49;0.50;;;0.50;;
18917;SDS011;9591;52.742;13.650;2022-07-12T15:48:37;0.83;;;0.50;;
18917;SDS011;9591;52.742;13.650;2022-07-12T15:51:26;0.67;;;0.50;;
18917;SDS011;9591;52.742;13.650;2022-07-12T15:54:27;0.80;;;0.50;;
18917;SDS011;9591;52.742;13.650;2022-07-12T15:57:14;0.80;;;0.53;;
18917;SDS011;9591;52.742;13.650;2022-07-12T16:00:01;0.87;;;0.50;;
18917;SDS011;9591;52.742;13.650;2022-07-12T16:02:50;2.27;;;0.53;;
18917;SDS011;9591;52.742;13.650;2022-07-12T16:05:39;3.03;;;0.50;;
18917;SDS011;9591;52.742;13.650;2022-07-12T16:08:26;1.33;;;0.70;;
18917;SDS011;9591;52.742;13.650;2022-07-12T16:11:17;2.20;;;0.40;;
18917;SDS011;9591;52.742;13.650;2022-07-12T16:14:04;2.00;;;0.60;;
18917;SDS011;9591;52.742;13.650;2022-07-12T16:16:51;0.43;;;0.40;;
18917;SDS011;9591;52.742;13.650;2022-07-12T16:19:37;2.97;;;0.40;;
18917;SDS011;9591;52.742;13.650;2022-07-12T16:22:26;0.97;;;0.67;;
18917;SDS011;9591;52.742;13.650;2022-07-12T16:25:12;2.83;;;0.50;;
18917;SDS011;9591;52.742;13.650;2022-07-12T16:27:59;1.80;;;0.40;;
18917;SDS011;9591;52.742;13.650;2022-07-12T16:30:46;3.70;;;0.67;;
18917;SDS011;9591;52.742;13.650;2022-07-12T16:33:33;0.50;;;0.50;;
18917;SDS011;9591;52.742;13.650;2022-07-12T16:36:20;1.33;;;0.47;;
18917;SDS011;9591;52.742;13.650;2022-07-12T16:39:08;1.30;;;0.50;;
18917;SDS011;9591;52.742;13.650;2022-07-12T16:41:56;2.70;;;0.57;;
18917;SDS011;9591;52.742;13.650;2022-07-12T16:44:43;1.27;;;0.70;;
18917;SDS011;9591;52.742;13.650;2022-07-12T16:47:30;1.40;;;0.63;;
18917;SDS011;9591;52.742;13.650;2022-07-12T16:50:17;0.50;;;0.50;;
18917;SDS011;9591;52.742;13.650;2022-07-12T16:53:03;1.30;;;0.73;;
18917;SDS011;9591;52.742;13.650;2022-07-12T16:55:51;1.03;;;0.53;;
18917;SDS011;9591;52.742;13.650;2022-07-12T16:58:39;0.50;;;0.50;;